Time;durP1;ratioP1;P1;durP2;ratioP2;P2;SDS_P1;SDS_P2;PMS_P1;PMS_P2;Temp;Humidity;BMP_temperature;BMP_pressure;BME280_temperature;BME280_humidity;BME280_pressure;Samples;Min_cycle;Max_cycle;Signal;HPM_P1;HPM_P2
2022/06/09 00:01:04;;;;;;;0.90;0.90;;;14.90;99.90;;;;;;4984244;28;20456;-82
2022/06/09 00:03:36;;;;;;;1.03;0.93;;;15.00;99.90;;;;;;4984213;28;20528;-82
2022/06/09 00:06:03;;;;;;;1.23;0.90;;;14.90;99.90;;;;;;4995657;28;20480;-82
2022/06/09 00:08:31;;;;;;;1.13;0.90;;;14.90;99.90;;;;;;4998871;28;20457;-81
2022/06/09 00:11:04;;;;;;;1.20;1.20;;;15.00;99.90;;;;;;4991089;28;20453;-81
2022/06/09 00:13:33;;;;;;;1.53;0.80;;;15.00;99.90;;;;;;4999133;28;20447;-82
2022/06/09 00:16:01;;;;;;;0.80;0.80;;;15.00;99.90;;;;;;5001817;28;20988;-82
2022/06/09 00:18:28;;;;;;;1.77;1.67;;;15.00;99.90;;;;;;5002056;28;20917;-81
2022/06/09 00:20:54;;;;;;;1.30;1.30;;;15.10;99.90;;;;;;5002626;28;20451;-82
2022/06/09 00:23:21;;;;;;;0.70;0.60;;;15.10;99.90;;;;;;5001381;28;20805;-82
2022/06/09 00:25:48;;;;;;;1.80;1.30;;;15.10;99.90;;;;;;5002469;28;20481;-80
2022/06/09 00:28:15;;;;;;;0.83;0.80;;;15.00;99.90;;;;;;4985870;28;20818;-82
2022/06/09 00:30:43;;;;;;;1.67;1.03;;;15.00;99.90;;;;;;4996261;28;20451;-81
2022/06/09 00:33:10;;;;;;;1.33;0.87;;;14.90;99.90;;;;;;4989850;28;20455;-81
2022/06/09 00:35:37;;;;;;;0.97;0.97;;;15.00;99.90;;;;;;4983423;28;20549;-82
2022/06/09 00:38:04;;;;;;;1.33;0.70;;;14.90;99.90;;;;;;4998204;28;20484;-83
2022/06/09 00:40:31;;;;;;;1.17;1.17;;;14.80;99.90;;;;;;5000716;28;20450;-81
2022/06/09 00:42:59;;;;;;;1.10;1.00;;;14.70;99.90;;;;;;5002145;28;20451;-83
2022/06/09 00:45:30;;;;;;;1.67;1.57;;;14.70;99.90;;;;;;4987192;28;20460;-82
2022/06/09 00:48:17;;;;;;;1.23;1.13;;;14.70;99.90;;;;;;4985137;28;20448;-83
2022/06/09 00:50:45;;;;;;;0.90;0.90;;;14.60;99.90;;;;;;4978085;28;20459;-83
2022/06/09 00:53:17;;;;;;;1.77;1.10;;;14.40;99.90;;;;;;5001081;28;20801;-81
2022/06/09 00:55:45;;;;;;;1.30;0.80;;;14.20;99.90;;;;;;4994167;28;20483;-80
2022/06/09 00:58:16;;;;;;;2.30;1.20;;;14.00;99.90;;;;;;4988102;28;20485;-80
2022/06/09 01:00:47;;;;;;;2.40;0.83;;;13.90;99.90;;;;;;4984336;28;20460;-80
2022/06/09 01:03:18;;;;;;;3.00;1.40;;;13.90;99.90;;;;;;4993568;28;20451;-78
2022/06/09 01:05:45;;;;;;;1.20;1.10;;;13.90;99.90;;;;;;5010816;28;20486;-78
2022/06/09 01:08:13;;;;;;;0.83;0.83;;;13.80;99.90;;;;;;4982734;28;20457;-81
2022/06/09 01:10:40;;;;;;;1.37;1.30;;;13.80;99.90;;;;;;4981749;28;20463;-81
2022/06/09 01:13:07;;;;;;;1.47;1.10;;;13.60;99.90;;;;;;4986972;28;20462;-81
2022/06/09 01:15:44;;;;;;;0.93;0.90;;;13.50;99.90;;;;;;4992150;28;20501;-80
2022/06/09 01:18:22;;;;;;;2.33;1.37;;;13.40;99.90;;;;;;4988876;28;20513;-81
2022/06/09 01:20:58;;;;;;;1.17;1.07;;;13.40;99.90;;;;;;4977037;28;20465;-80
2022/06/09 01:24:01;;;;;;;1.03;1.00;;;13.50;99.90;;;;;;4992877;28;20787;-83
2022/06/09 01:27:02;;;;;;;1.53;1.07;;;13.50;99.90;;;;;;4980608;28;20468;-80
2022/06/09 01:29:41;;;;;;;1.10;1.00;;;13.50;99.90;;;;;;5000036;28;20447;-82
2022/06/09 01:32:14;;;;;;;1.40;1.30;;;13.50;99.90;;;;;;4991830;28;20455;-81
2022/06/09 01:34:48;;;;;;;0.87;0.87;;;13.50;99.90;;;;;;4989650;28;20948;-82
2022/06/09 01:37:17;;;;;;;1.17;0.80;;;13.60;99.90;;;;;;4999801;28;20470;-82
2022/06/09 01:39:49;;;;;;;1.50;1.40;;;13.50;99.90;;;;;;5002363;28;20487;-82
2022/06/09 01:42:29;;;;;;;0.90;0.90;;;13.40;99.90;;;;;;5000294;28;20626;-82
2022/06/09 01:44:59;;;;;;;1.27;1.17;;;13.40;99.90;;;;;;4996768;28;20455;-80
2022/06/09 01:47:34;;;;;;;1.27;1.17;;;13.40;99.90;;;;;;5000403;28;20467;-82
2022/06/09 01:50:06;;;;;;;1.73;1.00;;;13.30;99.90;;;;;;5002421;28;20461;-82
2022/06/09 01:52:34;;;;;;;1.27;1.17;;;13.30;99.90;;;;;;4999737;28;20968;-82
2022/06/09 01:55:04;;;;;;;2.50;1.20;;;13.20;99.90;;;;;;5001709;28;20983;-82
2022/06/09 01:57:42;;;;;;;1.73;1.23;;;13.30;99.90;;;;;;5097076;28;20544;-83
2022/06/09 02:00:13;;;;;;;2.10;1.40;;;13.30;99.90;;;;;;5078616;28;20444;-81
2022/06/09 02:02:46;;;;;;;2.20;1.33;;;13.30;99.90;;;;;;5076190;28;20447;-82
2022/06/09 02:05:18;;;;;;;1.13;0.97;;;13.40;99.90;;;;;;5089868;28;20515;-81
2022/06/09 02:07:47;;;;;;;2.80;1.40;;;13.40;99.90;;;;;;5078314;28;20495;-81
2022/06/09 02:10:18;;;;;;;3.50;3.13;;;13.40;99.90;;;;;;5056569;28;20448;-81
2022/06/09 02:12:48;;;;;;;2.00;1.90;;;13.50;99.90;;;;;;5087415;28;20451;-81
2022/06/09 02:15:22;;;;;;;1.90;1.80;;;13.50;99.90;;;;;;5076347;28;20444;-81
2022/06/09 02:17:51;;;;;;;2.10;1.70;;;13.40;99.90;;;;;;5091205;28;20816;-80
2022/06/09 02:20:21;;;;;;;1.67;1.57;;;13.30;99.90;;;;;;5095299;28;20454;-81
2022/06/09 02:22:47;;;;;;;2.00;1.50;;;13.30;99.90;;;;;;5081165;28;20454;-81
2022/06/09 02:25:14;;;;;;;1.57;1.47;;;13.30;99.90;;;;;;5094312;28;20449;-81
2022/06/09 02:27:41;;;;;;;2.83;2.00;;;13.30;99.90;;;;;;5081989;28;20443;-81
2022/06/09 02:30:11;;;;;;;1.57;1.47;;;13.20;99.90;;;;;;5086462;28;20458;-81
2022/06/09 02:32:37;;;;;;;2.67;1.63;;;13.20;99.90;;;;;;5084834;28;20489;-81
2022/06/09 02:35:05;;;;;;;5.03;1.80;;;13.10;99.90;;;;;;5079914;28;20451;-81
2022/06/09 02:37:32;;;;;;;3.57;3.00;;;13.00;99.90;;;;;;5080209;28;20490;-81
2022/06/09 02:39:58;;;;;;;2.90;1.87;;;12.90;99.90;;;;;;5075332;28;20821;-81
2022/06/09 02:42:25;;;;;;;2.23;1.60;;;12.90;99.90;;;;;;5093492;28;20450;-80
2022/06/09 02:44:52;;;;;;;4.73;2.57;;;12.90;99.90;;;;;;5090170;28;20933;-81
2022/06/09 02:47:20;;;;;;;1.60;1.50;;;12.80;99.90;;;;;;5077604;28;20471;-81
2022/06/09 02:49:47;;;;;;;2.57;1.70;;;12.80;99.90;;;;;;5077138;28;20461;-80
2022/06/09 02:52:14;;;;;;;5.23;2.37;;;12.90;99.90;;;;;;5076166;28;20450;-81
2022/06/09 02:54:41;;;;;;;3.63;2.27;;;12.90;99.90;;;;;;5078804;28;20443;-81
2022/06/09 02:57:07;;;;;;;2.73;2.53;;;12.90;99.90;;;;;;5096118;28;20489;-81
2022/06/09 02:59:34;;;;;;;1.63;1.53;;;13.00;99.90;;;;;;5090786;28;20466;-81
2022/06/09 03:02:01;;;;;;;2.03;1.83;;;13.00;99.90;;;;;;5075901;28;20460;-81
2022/06/09 03:04:29;;;;;;;2.23;1.50;;;13.10;99.90;;;;;;5080361;28;20457;-82
2022/06/09 03:06:56;;;;;;;2.97;2.03;;;13.10;99.90;;;;;;5087253;28;20489;-81
2022/06/09 03:09:23;;;;;;;7.43;3.33;;;13.20;99.90;;;;;;5064677;28;20515;-81
2022/06/09 03:11:50;;;;;;;1.83;1.63;;;13.20;99.90;;;;;;5063046;28;20451;-80
2022/06/09 03:14:16;;;;;;;2.37;1.60;;;13.30;99.90;;;;;;5082777;28;20466;-81
2022/06/09 03:16:43;;;;;;;2.13;2.03;;;13.30;99.90;;;;;;5067219;28;20491;-82
2022/06/09 03:19:10;;;;;;;2.87;2.10;;;13.30;99.90;;;;;;5069522;28;20952;-81
2022/06/09 03:21:38;;;;;;;6.63;2.40;;;13.20;99.90;;;;;;5078027;28;20474;-81
2022/06/09 03:24:06;;;;;;;2.20;2.00;;;13.20;99.90;;;;;;5075419;28;20451;-81
2022/06/09 03:26:32;;;;;;;1.70;1.60;;;13.20;99.90;;;;;;5071546;28;20479;-81
2022/06/09 03:28:59;;;;;;;3.70;2.80;;;13.20;99.90;;;;;;5075197;28;20454;-81
2022/06/09 03:31:26;;;;;;;2.17;2.00;;;13.20;99.90;;;;;;5080553;28;20447;-81
2022/06/09 03:33:53;;;;;;;2.70;2.43;;;13.20;99.90;;;;;;5064511;28;20451;-81
2022/06/09 03:36:19;;;;;;;2.40;1.90;;;13.20;99.90;;;;;;5081770;28;20486;-81
2022/06/09 03:38:48;;;;;;;2.50;2.30;;;13.10;99.90;;;;;;5067962;28;20458;-81
2022/06/09 03:41:14;;;;;;;3.20;2.73;;;13.10;99.90;;;;;;5066642;28;20455;-81
2022/06/09 03:43:41;;;;;;;2.93;2.63;;;13.00;99.90;;;;;;5082659;28;20478;-81
2022/06/09 03:46:09;;;;;;;4.13;2.40;;;13.00;99.90;;;;;;5078417;28;20460;-81
2022/06/09 03:48:35;;;;;;;3.47;2.93;;;13.00;99.90;;;;;;5053681;28;20456;-81
2022/06/09 03:51:02;;;;;;;4.73;2.73;;;13.00;99.90;;;;;;5066626;28;20477;-81
2022/06/09 03:53:29;;;;;;;2.50;2.30;;;13.00;99.90;;;;;;5062493;28;20520;-81
2022/06/09 03:55:57;;;;;;;3.47;3.17;;;13.00;99.90;;;;;;5065281;28;20860;-81
2022/06/09 03:58:24;;;;;;;2.93;2.67;;;12.90;99.90;;;;;;5072085;28;20451;-81
2022/06/09 04:00:51;;;;;;;3.70;2.90;;;12.90;99.90;;;;;;5063231;28;20543;-81
2022/06/09 04:03:18;;;;;;;3.97;3.43;;;12.90;99.90;;;;;;5061884;28;20448;-81
2022/06/09 04:05:44;;;;;;;3.70;3.20;;;12.90;99.90;;;;;;5062755;28;20851;-81
2022/06/09 04:08:12;;;;;;;2.97;2.73;;;12.90;99.90;;;;;;5061610;28;20482;-80
2022/06/09 04:10:40;;;;;;;3.27;3.07;;;12.80;99.90;;;;;;5072726;28;20447;-81
2022/06/09 04:13:08;;;;;;;3.30;3.00;;;12.90;99.90;;;;;;5080769;28;20455;-81
2022/06/09 04:15:34;;;;;;;4.30;3.80;;;12.80;99.90;;;;;;5070752;28;20476;-81
2022/06/09 04:18:04;;;;;;;5.03;3.30;;;12.90;99.90;;;;;;5061506;28;20860;-81
2022/06/09 04:20:31;;;;;;;4.13;3.67;;;12.80;99.90;;;;;;5069667;28;20455;-81
2022/06/09 04:22:57;;;;;;;3.80;3.13;;;12.80;99.90;;;;;;5064495;28;20452;-81
2022/06/09 04:25:24;;;;;;;4.53;3.40;;;12.90;99.90;;;;;;5080954;28;21001;-82
2022/06/09 04:27:51;;;;;;;4.10;3.70;;;12.90;99.90;;;;;;5063889;28;20458;-81
2022/06/09 04:30:20;;;;;;;3.57;3.33;;;12.80;99.90;;;;;;5077234;28;20459;-81
2022/06/09 04:32:47;;;;;;;3.10;2.77;;;12.90;99.90;;;;;;5080067;28;20815;-81
2022/06/09 04:35:13;;;;;;;3.03;2.83;;;12.90;99.90;;;;;;5072246;28;20457;-80
2022/06/09 04:40:25;;;;;;;3.67;3.30;;;12.90;99.90;;;;;;5066827;28;20484;-80
2022/06/09 04:42:52;;;;;;;3.50;3.20;;;12.80;99.90;;;;;;5063758;28;20536;-80
2022/06/09 04:45:20;;;;;;;3.30;3.10;;;12.80;99.90;;;;;;5055766;28;20812;-80
2022/06/09 04:47:47;;;;;;;10.83;3.70;;;12.70;99.90;;;;;;5060650;28;20447;-80
2022/06/09 04:50:15;;;;;;;2.60;2.40;;;12.70;99.90;;;;;;5062690;28;20961;-79
2022/06/09 04:52:43;;;;;;;5.10;2.80;;;12.70;99.90;;;;;;5065784;28;20493;-79
2022/06/09 04:55:10;;;;;;;4.50;2.80;;;12.70;99.90;;;;;;5075267;28;20465;-80
2022/06/09 04:57:37;;;;;;;3.27;2.97;;;12.60;99.90;;;;;;5061421;28;20487;-79
2022/06/09 05:00:05;;;;;;;3.43;2.60;;;12.60;99.90;;;;;;5064902;28;20447;-79
2022/06/09 05:02:33;;;;;;;4.17;2.87;;;12.60;99.90;;;;;;5075165;28;20458;-81
2022/06/09 05:05:01;;;;;;;2.80;2.60;;;12.60;99.90;;;;;;5057510;28;20937;-79
2022/06/09 05:07:28;;;;;;;9.03;3.40;;;12.60;99.90;;;;;;5056856;28;20506;-81
2022/06/09 05:09:55;;;;;;;3.30;2.90;;;12.60;99.90;;;;;;5055916;28;20460;-80
2022/06/09 05:12:22;;;;;;;3.50;3.20;;;12.60;99.90;;;;;;5068834;28;21017;-80
2022/06/09 05:14:51;;;;;;;3.60;2.90;;;12.60;99.90;;;;;;5075147;28;20819;-80
2022/06/09 05:17:19;;;;;;;2.60;2.40;;;12.60;99.90;;;;;;5066841;28;20570;-80
2022/06/09 05:19:47;;;;;;;3.37;2.60;;;12.60;99.90;;;;;;5066104;28;20455;-80
2022/06/09 05:22:14;;;;;;;4.43;2.93;;;12.70;99.90;;;;;;5059846;28;20462;-80
2022/06/09 05:24:41;;;;;;;3.77;3.17;;;12.80;99.90;;;;;;5075574;28;20802;-80
2022/06/09 05:27:08;;;;;;;3.07;2.87;;;12.90;99.90;;;;;;5060334;28;20468;-80
2022/06/09 05:29:35;;;;;;;3.23;2.90;;;12.90;99.90;;;;;;5069853;28;20518;-80
2022/06/09 05:32:03;;;;;;;4.93;3.60;;;12.90;99.90;;;;;;5064860;28;20976;-80
2022/06/09 05:34:31;;;;;;;2.60;2.40;;;12.90;99.90;;;;;;5068888;28;20470;-80
2022/06/09 05:36:59;;;;;;;3.83;3.03;;;12.90;99.90;;;;;;5055652;28;20483;-80
2022/06/09 05:44:55;;;;;;;6.97;2.87;;;13.20;99.90;;;;;;5072758;28;20454;-80
2022/06/09 05:47:24;;;;;;;3.07;2.47;;;13.30;99.90;;;;;;5061780;28;20475;-80
2022/06/09 05:49:53;;;;;;;2.67;2.13;;;13.50;99.90;;;;;;5055867;28;21002;-79
2022/06/09 05:52:23;;;;;;;3.60;2.27;;;13.60;99.90;;;;;;5038668;28;20953;-80
2022/06/09 05:54:51;;;;;;;2.87;2.67;;;13.80;99.90;;;;;;5054948;28;20543;-80
2022/06/09 05:57:18;;;;;;;3.70;2.47;;;13.90;99.90;;;;;;5054365;28;20533;-79
2022/06/09 05:59:45;;;;;;;3.20;2.97;;;14.10;99.90;;;;;;5054934;28;20456;-80
2022/06/09 06:02:13;;;;;;;3.63;2.10;;;14.10;99.90;;;;;;5072343;28;20447;-80
2022/06/09 06:04:40;;;;;;;2.83;2.63;;;14.10;99.90;;;;;;5077268;28;20447;-79
2022/06/09 06:07:06;;;;;;;3.73;2.27;;;14.20;99.90;;;;;;5057618;28;20463;-80
2022/06/09 06:09:35;;;;;;;2.33;2.10;;;14.30;99.90;;;;;;5061965;28;20459;-80
2022/06/09 06:12:03;;;;;;;2.10;2.00;;;14.30;99.90;;;;;;5068336;28;20977;-79
2022/06/09 06:14:31;;;;;;;2.73;2.53;;;14.30;99.90;;;;;;5055314;28;20449;-79
2022/06/09 06:16:58;;;;;;;4.00;2.23;;;14.40;99.90;;;;;;5055538;28;20877;-80
2022/06/09 06:19:25;;;;;;;2.70;2.50;;;14.50;99.90;;;;;;5075376;28;20463;-79
2022/06/09 06:21:54;;;;;;;3.47;2.10;;;14.50;99.90;;;;;;5060539;28;20520;-80
2022/06/09 06:24:23;;;;;;;2.83;2.67;;;14.50;99.90;;;;;;5055865;28;20479;-79
2022/06/09 06:26:51;;;;;;;2.83;2.63;;;14.60;99.90;;;;;;5068602;28;20468;-79
2022/06/09 06:29:21;;;;;;;2.70;2.50;;;14.60;99.90;;;;;;5059626;28;20459;-79
2022/06/09 06:31:49;;;;;;;5.63;2.30;;;14.50;99.90;;;;;;5053887;28;20792;-79
2022/06/09 06:34:16;;;;;;;1.97;1.87;;;14.70;99.90;;;;;;5060810;28;20448;-79
2022/06/09 06:36:43;;;;;;;3.23;1.83;;;14.80;99.90;;;;;;5066086;28;21145;-79
2022/06/09 06:39:10;;;;;;;2.63;1.87;;;14.80;99.90;;;;;;5056164;28;20452;-79
2022/06/09 06:41:38;;;;;;;2.70;2.30;;;14.70;99.90;;;;;;5073872;28;20452;-79
2022/06/09 06:44:07;;;;;;;2.10;1.27;;;14.70;99.90;;;;;;5065627;28;20448;-77
2022/06/09 06:46:33;;;;;;;2.03;1.93;;;14.70;99.90;;;;;;5060121;28;20540;-79
2022/06/09 06:49:00;;;;;;;3.60;3.30;;;14.70;99.90;;;;;;5059582;28;20499;-78
2022/06/09 06:51:27;;;;;;;3.10;2.20;;;14.80;99.90;;;;;;5060459;28;20809;-80
2022/06/09 06:53:54;;;;;;;3.30;1.93;;;14.70;99.90;;;;;;5059960;28;20437;-80
2022/06/09 06:56:20;;;;;;;2.10;2.00;;;14.80;99.90;;;;;;5073782;28;20893;-79
2022/06/09 06:58:47;;;;;;;3.57;2.07;;;14.80;99.90;;;;;;5077517;28;20480;-78
2022/06/09 07:01:16;;;;;;;6.77;4.10;;;14.90;99.90;;;;;;5078842;28;20822;-77
2022/06/09 07:03:42;;;;;;;1.83;1.63;;;15.10;99.90;;;;;;5077010;28;20649;-78
2022/06/09 07:06:09;;;;;;;3.00;2.10;;;15.20;99.90;;;;;;5057724;28;20471;-78
2022/06/09 07:08:36;;;;;;;2.80;2.30;;;15.40;99.90;;;;;;5058111;28;20440;-80
2022/06/09 07:11:05;;;;;;;1.80;1.70;;;15.40;99.90;;;;;;5075955;28;20443;-78
2022/06/09 07:13:31;;;;;;;3.00;2.80;;;15.40;99.90;;;;;;5068802;28;20455;-78
2022/06/09 07:15:58;;;;;;;3.70;1.73;;;15.20;99.90;;;;;;5056827;28;20473;-80
2022/06/09 07:18:26;;;;;;;2.70;2.47;;;15.10;99.90;;;;;;5063852;28;20981;-78
2022/06/09 07:20:53;;;;;;;3.07;1.67;;;15.00;99.90;;;;;;5058936;28;20452;-78
2022/06/09 07:23:19;;;;;;;4.00;1.93;;;14.80;99.90;;;;;;5061752;28;20456;-79
2022/06/09 07:25:46;;;;;;;4.63;2.20;;;14.90;99.90;;;;;;5078325;28;20850;-80
2022/06/09 07:28:14;;;;;;;1.40;1.30;;;14.90;99.90;;;;;;5076005;28;20450;-78
2022/06/09 07:30:42;;;;;;;1.83;1.03;;;14.90;99.90;;;;;;5058334;28;20453;-80
2022/06/09 07:33:09;;;;;;;3.13;2.80;;;14.90;99.90;;;;;;5059366;28;20464;-79
2022/06/09 07:35:38;;;;;;;2.97;1.77;;;14.90;99.90;;;;;;5079765;28;20471;-80
2022/06/09 07:41:01;;;;;;;4.27;2.53;;;14.80;99.90;;;;;;5062338;28;20456;-81
2022/06/09 07:43:27;;;;;;;4.50;3.13;;;14.90;99.90;;;;;;5058430;28;20561;-82
2022/06/09 07:45:54;;;;;;;3.03;1.83;;;15.10;99.90;;;;;;5058561;28;20580;-81
2022/06/09 07:48:21;;;;;;;2.37;1.57;;;15.20;99.90;;;;;;5058422;28;20447;-83
2022/06/09 07:50:51;;;;;;;2.43;1.30;;;15.30;99.90;;;;;;5056160;28;20518;-83
2022/06/09 07:53:19;;;;;;;3.17;1.57;;;15.20;99.90;;;;;;5068710;28;20445;-81
2022/06/09 07:55:46;;;;;;;2.87;2.67;;;15.20;99.90;;;;;;5076457;28;20475;-81
2022/06/09 07:58:14;;;;;;;1.97;1.40;;;15.30;99.90;;;;;;5070515;28;21030;-81
2022/06/09 08:00:41;;;;;;;3.90;1.70;;;15.30;99.90;;;;;;5068261;28;20457;-81
2022/06/09 08:03:08;;;;;;;3.03;1.50;;;15.50;99.90;;;;;;5056535;28;20451;-81
2022/06/09 08:05:35;;;;;;;5.10;1.70;;;15.60;99.90;;;;;;5062001;28;20849;-83
2022/06/09 08:08:05;;;;;;;3.00;1.40;;;15.70;99.90;;;;;;5059559;28;20449;-80
2022/06/09 08:10:32;;;;;;;2.93;1.40;;;15.70;99.90;;;;;;5077705;28;20455;-81
2022/06/09 08:13:01;;;;;;;1.50;1.40;;;15.90;99.90;;;;;;5072212;28;20815;-81
2022/06/09 08:15:29;;;;;;;3.60;1.20;;;15.80;99.90;;;;;;5059875;28;20448;-81
2022/06/09 08:17:57;;;;;;;2.03;1.93;;;15.80;99.90;;;;;;5061178;28;20848;-81
2022/06/09 08:20:27;;;;;;;2.80;1.47;;;15.90;99.90;;;;;;5060323;28;20927;-81
2022/06/09 08:22:59;;;;;;;3.23;1.53;;;16.00;99.90;;;;;;5067869;28;20459;-81
2022/06/09 08:25:27;;;;;;;2.20;1.30;;;16.10;99.90;;;;;;5080345;28;20443;-82
2022/06/09 08:27:55;;;;;;;1.13;1.13;;;16.20;99.90;;;;;;5082875;28;20447;-82
2022/06/09 08:30:22;;;;;;;1.97;1.83;;;16.20;99.90;;;;;;5083542;28;20454;-85
2022/06/09 08:32:50;;;;;;;4.30;1.33;;;16.20;99.90;;;;;;5085191;28;20455;-84
2022/06/09 08:35:18;;;;;;;2.77;1.10;;;16.10;99.90;;;;;;5064871;28;20831;-84
2022/06/09 08:37:48;;;;;;;1.67;1.57;;;16.10;99.90;;;;;;5062379;28;20482;-84
2022/06/09 08:40:18;;;;;;;1.40;1.30;;;16.20;99.90;;;;;;5062353;28;20535;-84
2022/06/09 08:43:06;;;;;;;1.67;1.07;;;16.20;99.90;;;;;;5062118;28;20453;-84
2022/06/09 08:45:37;;;;;;;2.37;2.07;;;16.20;99.90;;;;;;5062283;28;20453;-84
2022/06/09 08:48:06;;;;;;;1.97;1.23;;;16.20;99.90;;;;;;5061800;28;20446;-84
2022/06/09 08:50:36;;;;;;;2.43;1.30;;;16.30;99.90;;;;;;5062657;28;20477;-84
2022/06/09 08:53:08;;;;;;;3.50;1.10;;;16.40;99.90;;;;;;5061683;28;20822;-84
2022/06/09 08:55:38;;;;;;;0.87;0.87;;;16.50;99.90;;;;;;5061681;28;20479;-84
2022/06/09 08:58:14;;;;;;;1.73;0.93;;;16.50;99.90;;;;;;5061830;28;20472;-85
2022/06/09 09:00:43;;;;;;;1.07;0.83;;;16.60;99.90;;;;;;5062780;28;20474;-84
2022/06/09 09:03:18;;;;;;;2.07;0.90;;;16.70;99.90;;;;;;5062163;28;20814;-85
2022/06/09 09:05:50;;;;;;;2.20;1.27;;;16.70;99.90;;;;;;5060645;28;20482;-84
2022/06/09 09:08:17;;;;;;;0.90;0.73;;;16.60;99.90;;;;;;5061685;28;20441;-84
2022/06/09 09:10:52;;;;;;;4.47;1.57;;;16.60;99.90;;;;;;5060359;28;20451;-84
2022/06/09 09:13:39;;;;;;;2.10;1.23;;;16.60;99.90;;;;;;5062036;28;20452;-84
2022/06/09 09:16:13;;;;;;;1.13;1.03;;;16.80;99.90;;;;;;5061228;28;20470;-84
2022/06/09 09:18:46;;;;;;;2.23;0.90;;;17.10;99.90;;;;;;5060828;28;20477;-84
2022/06/09 09:21:45;;;;;;;1.23;1.00;;;17.20;99.90;;;;;;5061555;28;20455;-84
2022/06/09 09:24:23;;;;;;;1.47;1.23;;;17.40;99.90;;;;;;5061744;28;20459;-85
2022/06/09 09:26:59;;;;;;;1.87;1.30;;;17.60;99.90;;;;;;5062068;28;20462;-84
2022/06/09 09:29:32;;;;;;;1.03;0.93;;;17.80;99.90;;;;;;5062493;28;20501;-84
2022/06/09 09:32:02;;;;;;;2.53;2.30;;;17.60;99.70;;;;;;5064525;28;20439;-85
2022/06/09 09:34:34;;;;;;;1.57;1.07;;;17.50;99.90;;;;;;5068276;28;20440;-85
2022/06/09 09:37:03;;;;;;;0.80;0.80;;;17.50;99.70;;;;;;5074651;28;20534;-82
2022/06/09 09:39:41;;;;;;;1.73;1.53;;;17.70;99.90;;;;;;5075461;28;20477;-82
2022/06/09 09:42:14;;;;;;;1.80;1.20;;;17.80;99.40;;;;;;5075823;28;20454;-83
2022/06/09 09:44:57;;;;;;;1.33;1.00;;;17.90;99.90;;;;;;5076186;28;20482;-83
2022/06/09 09:47:26;;;;;;;1.40;1.30;;;17.80;99.50;;;;;;5075958;28;20454;-83
2022/06/09 09:49:53;;;;;;;2.00;1.23;;;17.90;99.90;;;;;;5075570;28;20461;-82
2022/06/09 09:52:40;;;;;;;2.33;1.10;;;17.90;99.90;;;;;;5074695;28;20451;-82
2022/06/09 09:55:25;;;;;;;2.87;1.50;;;17.90;99.90;;;;;;5075392;28;20442;-82
2022/06/09 09:58:15;;;;;;;7.43;1.77;;;18.00;99.50;;;;;;5075880;28;20451;-82
2022/06/09 10:00:44;;;;;;;1.00;1.00;;;18.00;98.30;;;;;;5075159;28;20448;-83
2022/06/09 10:08:52;;;;;;;2.13;0.80;;;18.60;99.20;;;;;;5075937;28;20445;-83
2022/06/09 10:14:31;;;;;;;2.30;1.30;;;18.30;96.40;;;;;;5075866;28;20430;-83
2022/06/09 10:17:01;;;;;;;1.10;1.03;;;18.40;98.20;;;;;;5075892;28;20462;-83
2022/06/09 10:19:31;;;;;;;1.73;1.10;;;18.40;97.00;;;;;;5079348;28;20486;-83
2022/06/09 10:22:00;;;;;;;0.70;0.70;;;18.40;96.00;;;;;;5079302;28;20451;-84
2022/06/09 10:24:35;;;;;;;0.97;0.87;;;18.50;95.70;;;;;;5079602;28;20455;-83
2022/06/09 10:27:03;;;;;;;1.77;1.60;;;18.60;96.70;;;;;;5079447;28;20460;-84
2022/06/09 10:29:37;;;;;;;2.03;1.83;;;18.30;95.90;;;;;;5080173;28;20448;-83
2022/06/09 10:32:13;;;;;;;2.50;1.37;;;18.10;96.70;;;;;;5079781;28;20434;-83
2022/06/09 10:34:47;;;;;;;2.00;1.07;;;18.20;98.00;;;;;;5079813;28;20449;-83
2022/06/09 10:37:21;;;;;;;2.30;1.50;;;18.10;96.80;;;;;;5077354;28;20474;-81
2022/06/09 10:39:52;;;;;;;3.90;1.43;;;18.10;97.30;;;;;;5074400;28;20478;-82
2022/06/09 10:42:26;;;;;;;1.73;1.20;;;18.00;97.10;;;;;;5074847;28;20798;-81
2022/06/09 10:45:04;;;;;;;1.20;1.10;;;17.90;97.60;;;;;;5075842;28;20473;-83
2022/06/09 10:56:09;;;;;;;2.20;1.40;;;19.10;96.80;;;;;;5075290;28;20463;-82
2022/06/09 10:58:40;;;;;;;3.23;1.60;;;19.50;95.50;;;;;;5074741;28;20490;-83
2022/06/09 11:01:17;;;;;;;1.00;0.90;;;19.50;95.70;;;;;;5076405;28;20442;-82
2022/06/09 11:03:48;;;;;;;2.30;1.33;;;19.20;93.80;;;;;;5075821;28;20458;-81
2022/06/09 11:06:23;;;;;;;2.10;1.30;;;19.10;93.90;;;;;;5075855;28;20452;-82
2022/06/09 11:08:59;;;;;;;1.97;1.20;;;19.30;93.20;;;;;;5078507;28;20439;-81
2022/06/09 11:11:39;;;;;;;1.37;1.20;;;19.40;93.30;;;;;;5078950;28;20447;-82
2022/06/09 11:14:21;;;;;;;1.43;1.33;;;19.50;93.30;;;;;;5078527;28;20508;-82
2022/06/09 11:17:01;;;;;;;0.83;0.83;;;19.70;92.90;;;;;;5078648;28;20450;-82
2022/06/09 11:19:45;;;;;;;1.57;0.83;;;19.70;92.00;;;;;;5079094;28;20474;-81
2022/06/09 11:22:20;;;;;;;1.20;0.60;;;19.50;91.20;;;;;;5079490;28;20432;-81
2022/06/09 11:24:54;;;;;;;2.37;1.13;;;19.50;91.10;;;;;;5078729;28;20475;-81
2022/06/09 11:27:31;;;;;;;2.40;1.40;;;19.30;91.60;;;;;;5078695;28;20468;-81
2022/06/09 11:30:12;;;;;;;0.90;0.90;;;19.30;92.60;;;;;;5078411;28;20452;-82
2022/06/09 11:32:46;;;;;;;1.80;1.10;;;19.20;93.00;;;;;;5078225;28;20431;-82
2022/06/09 11:35:21;;;;;;;2.03;1.50;;;19.00;93.80;;;;;;5077576;28;20442;-82
2022/06/09 11:38:17;;;;;;;2.90;1.90;;;18.50;94.30;;;;;;5077802;28;20438;-82
2022/06/09 11:40:49;;;;;;;1.17;1.03;;;18.20;94.50;;;;;;5077632;28;20438;-81
2022/06/09 11:43:28;;;;;;;1.13;1.00;;;18.30;94.30;;;;;;5077603;28;20434;-82
2022/06/09 11:45:59;;;;;;;2.13;1.30;;;18.30;92.80;;;;;;5077793;28;20489;-81
2022/06/09 11:48:29;;;;;;;1.70;1.00;;;18.30;92.90;;;;;;5077175;28;20447;-81
2022/06/09 11:50:59;;;;;;;2.00;1.03;;;18.70;93.10;;;;;;5077014;28;20439;-82
2022/06/09 11:53:29;;;;;;;1.23;0.70;;;19.40;88.50;;;;;;5077682;28;20458;-81
2022/06/09 11:56:43;;;;;;;1.40;1.30;;;19.90;88.00;;;;;;5077447;28;20476;-81
2022/06/09 11:59:20;;;;;;;3.67;2.10;;;20.50;91.10;;;;;;5077245;28;20472;-81
2022/06/09 12:02:06;;;;;;;1.30;1.20;;;20.80;90.70;;;;;;5077012;28;20455;-81
2022/06/09 12:04:59;;;;;;;1.73;1.27;;;20.80;91.10;;;;;;5077447;28;20443;-81
2022/06/09 12:07:49;;;;;;;2.00;1.23;;;20.60;91.00;;;;;;5068589;28;20475;-81
2022/06/09 12:10:42;;;;;;;1.53;1.23;;;20.10;90.30;;;;;;5077230;28;20430;-81
2022/06/09 12:13:19;;;;;;;2.13;1.30;;;20.00;90.90;;;;;;5096167;28;20466;-81
2022/06/09 12:16:02;;;;;;;1.00;1.00;;;19.90;90.00;;;;;;5096247;28;20489;-82
2022/06/09 12:18:34;;;;;;;3.10;1.33;;;19.60;89.00;;;;;;5095606;28;20464;-82
2022/06/09 12:21:08;;;;;;;1.67;1.50;;;19.80;91.10;;;;;;5084299;28;20441;-81
2022/06/09 12:23:39;;;;;;;3.17;1.87;;;20.50;91.80;;;;;;5075549;28;20905;-81
2022/06/09 12:26:43;;;;;;;1.50;1.40;;;20.70;91.50;;;;;;5086639;28;20466;-82
2022/06/09 12:29:23;;;;;;;2.40;1.10;;;20.00;91.30;;;;;;5096269;28;20450;-81
2022/06/09 12:32:36;;;;;;;2.13;1.10;;;19.60;92.20;;;;;;5087115;28;20456;-83
2022/06/09 12:35:05;;;;;;;4.03;1.60;;;20.20;89.10;;;;;;5088997;28;20451;-83
2022/06/09 12:37:34;;;;;;;1.80;1.30;;;20.90;88.10;;;;;;5077149;28;20469;-83
2022/06/09 12:40:06;;;;;;;1.50;1.00;;;21.40;89.40;;;;;;5081887;28;20488;-84
2022/06/09 12:42:45;;;;;;;1.77;1.20;;;21.70;88.40;;;;;;5094466;28;20443;-84
2022/06/09 12:45:17;;;;;;;2.83;1.30;;;21.90;86.00;;;;;;5088622;28;20497;-83
2022/06/09 12:47:53;;;;;;;3.53;2.37;;;22.20;84.80;;;;;;5082207;28;20442;-83
2022/06/09 12:50:23;;;;;;;2.30;1.20;;;22.40;86.10;;;;;;5096781;28;20524;-84
2022/06/09 12:52:52;;;;;;;2.33;0.93;;;23.00;85.50;;;;;;5096640;28;20454;-85
2022/06/09 12:55:25;;;;;;;3.10;1.50;;;23.30;82.20;;;;;;5096854;28;20450;-83
2022/06/09 12:57:57;;;;;;;1.33;1.23;;;23.10;80.10;;;;;;5095591;28;20439;-80
2022/06/09 13:00:29;;;;;;;2.00;1.33;;;22.60;80.50;;;;;;5084188;28;20499;-84
2022/06/09 13:02:56;;;;;;;2.90;2.00;;;22.40;82.00;;;;;;5069417;28;20445;-79
2022/06/09 13:05:54;;;;;;;1.57;1.47;;;22.90;81.00;;;;;;5079578;28;20458;-85
2022/06/09 13:08:25;;;;;;;3.03;1.40;;;23.30;81.20;;;;;;5077336;28;20437;-84
2022/06/09 13:11:01;;;;;;;4.53;1.33;;;23.90;79.00;;;;;;5073912;28;20459;-83
2022/06/09 13:13:37;;;;;;;1.43;1.00;;;23.90;72.50;;;;;;5084302;28;20455;-84
2022/06/09 13:16:07;;;;;;;1.07;0.80;;;22.90;71.10;;;;;;5097014;28;20480;-81
2022/06/09 13:18:37;;;;;;;2.23;1.17;;;22.30;72.80;;;;;;5086842;28;20438;-81
2022/06/09 13:21:10;;;;;;;1.10;1.00;;;22.30;74.40;;;;;;5076343;28;20469;-81
2022/06/09 13:23:37;;;;;;;1.80;1.13;;;22.50;74.80;;;;;;5086963;28;20443;-81
2022/06/09 13:26:07;;;;;;;1.47;1.30;;;22.70;75.30;;;;;;5097460;28;20505;-81
2022/06/09 13:28:37;;;;;;;2.10;1.13;;;23.10;76.00;;;;;;5088383;28;20444;-81
2022/06/09 13:31:08;;;;;;;1.20;0.80;;;23.60;77.10;;;;;;5080253;28;20435;-83
2022/06/09 13:33:47;;;;;;;2.53;1.90;;;24.20;72.50;;;;;;5094315;28;20454;-83
2022/06/09 13:36:32;;;;;;;1.97;1.23;;;23.80;67.20;;;;;;5077337;28;20508;-82